Time;durP1;ratioP1;P1;durP2;ratioP2;P2;SDS_P1;SDS_P2;PMS_P1;PMS_P2;Temp;Humidity;BMP_temperature;BMP_pressure;BME280_temperature;BME280_humidity;BME280_pressure;Samples;Min_cycle;Max_cycle;Signal;HPM_P1;HPM_P2
2023/08/28 00:01:47;;;;;;;;;2.00;1.00;;;;;17.57;62.99;101015.25;5057315;28;45381;-42
2023/08/28 00:04:12;;;;;;;;;1.00;1.00;;;;;17.62;63.07;101010.13;5057226;28;45386;-44
2023/08/28 00:06:38;;;;;;;;;1.00;1.00;;;;;17.58;62.50;101008.00;5057789;28;45850;-41
2023/08/28 00:09:04;;;;;;;;;1.00;1.00;;;;;17.69;62.33;101011.03;5055802;28;47172;-41
2023/08/28 00:11:29;;;;;;;;;1.50;1.50;;;;;17.77;62.10;101020.06;5057030;28;45367;-40
2023/08/28 00:13:55;;;;;;;;;0.50;0.50;;;;;17.84;62.21;101012.94;5055921;28;45463;-42
2023/08/28 00:16:20;;;;;;;;;1.25;0.50;;;;;17.88;61.75;101006.97;5057587;28;45371;-41
2023/08/28 00:18:45;;;;;;;;;1.00;1.00;;;;;17.90;61.85;101007.59;5056989;28;46390;-41
2023/08/28 00:21:11;;;;;;;;;1.50;1.50;;;;;17.88;61.66;100995.38;5057045;28;45381;-42
2023/08/28 00:23:36;;;;;;;;;1.00;1.00;;;;;17.99;61.91;101004.81;5056976;28;45386;-41
2023/08/28 00:26:02;;;;;;;;;1.00;1.00;;;;;18.01;61.44;101013.56;5057353;28;45368;-44
2023/08/28 00:28:27;;;;;;;;;2.50;1.00;;;;;18.02;61.55;101009.81;5056889;28;45430;-43
2023/08/28 00:30:52;;;;;;;;;1.25;1.00;;;;;18.05;61.24;101007.59;5056862;28;45634;-42
2023/08/28 00:33:18;;;;;;;;;1.50;0.00;;;;;18.06;61.52;101001.19;5056927;28;45357;-41
2023/08/28 00:35:43;;;;;;;;;5.75;1.75;;;;;18.08;61.11;101004.53;5056594;28;45414;-41
2023/08/28 00:38:10;;;;;;;;;1.00;1.00;;;;;18.08;60.98;100985.69;5056158;28;45351;-41
2023/08/28 00:40:40;;;;;;;;;1.00;1.00;;;;;18.14;61.07;100995.69;5056596;28;45347;-42
2023/08/28 00:43:05;;;;;;;;;2.00;0.50;;;;;18.14;61.05;100992.16;5056622;28;45371;-40
2023/08/28 00:45:31;;;;;;;;;1.00;1.00;;;;;18.16;61.06;100990.09;5056757;28;45305;-40
2023/08/28 00:47:57;;;;;;;;;0.75;0.00;;;;;18.16;61.25;100982.03;5056320;28;47179;-42
2023/08/28 00:50:23;;;;;;;;;1.00;1.00;;;;;18.16;61.00;100980.19;5056456;28;45339;-43
2023/08/28 00:52:48;;;;;;;;;1.00;1.00;;;;;18.17;60.93;100983.72;5056409;28;45376;-41
2023/08/28 00:55:14;;;;;;;;;0.50;0.50;;;;;18.20;60.95;100984.16;5056605;28;45553;-41
2023/08/28 00:57:39;;;;;;;;;1.00;1.00;;;;;18.20;60.94;100978.78;5056403;28;45425;-41
2023/08/28 01:00:06;;;;;;;;;0.75;0.00;;;;;18.19;60.97;100977.09;5056226;28;45266;-42
2023/08/28 01:02:32;;;;;;;;;1.00;1.00;;;;;18.19;60.99;100966.31;5056652;28;45322;-41
2023/08/28 01:04:58;;;;;;;;;3.75;0.25;;;;;18.23;60.88;100982.09;5056592;28;45447;-45
2023/08/28 01:07:38;;;;;;;;;0.50;0.50;;;;;18.18;60.74;100964.66;5056212;28;46948;-41
2023/08/28 01:10:17;;;;;;;;;1.00;0.00;;;;;18.25;60.69;100970.13;5055656;28;45464;-42
2023/08/28 01:13:18;;;;;;;;;1.75;1.50;;;;;18.26;60.72;100974.47;5056470;28;45405;-43
2023/08/28 01:15:44;;;;;;;;;1.00;0.00;;;;;18.28;60.67;100972.41;4994216;28;45602;-43
2023/08/28 01:18:09;;;;;;;;;2.00;1.00;;;;;18.24;60.99;100967.59;4993652;28;45558;-43
2023/08/28 01:20:35;;;;;;;;;1.50;1.50;;;;;18.25;60.99;100969.31;4994159;28;45466;-42
2023/08/28 01:23:27;;;;;;;;;1.00;1.00;;;;;18.22;61.04;100967.81;4994278;28;45492;-42
2023/08/28 01:25:53;;;;;;;;;2.25;1.00;;;;;18.22;61.23;100969.69;4977833;28;45377;-43
2023/08/28 01:28:20;;;;;;;;;3.00;1.00;;;;;18.19;61.22;100974.41;4994070;28;45407;-44
2023/08/28 01:30:45;;;;;;;;;2.00;1.00;;;;;18.15;61.29;100972.28;4993971;28;45523;-42
2023/08/28 01:33:11;;;;;;;;;1.00;1.00;;;;;18.07;61.57;100967.84;4994266;28;45459;-46
2023/08/28 01:35:36;;;;;;;;;1.00;1.00;;;;;18.09;61.72;100965.81;4993964;28;45944;-44
2023/08/28 01:38:16;;;;;;;;;3.75;1.00;;;;;18.06;61.66;100957.28;4993909;28;45508;-44
2023/08/28 01:40:49;;;;;;;;;1.25;0.50;;;;;18.04;61.79;100960.19;4993882;28;45387;-45
2023/08/28 01:43:20;;;;;;;;;0.67;0.67;;;;;18.06;61.83;100960.81;4994099;28;45466;-41
2023/08/28 01:45:45;;;;;;;;;0.00;0.00;;;;;18.08;61.83;100958.78;4993849;28;45549;-42
2023/08/28 01:48:10;;;;;;;;;4.00;1.00;;;;;18.10;61.87;100955.88;4993891;28;45283;-41
2023/08/28 01:50:36;;;;;;;;;2.00;0.00;;;;;18.10;61.93;100951.31;4993807;28;45929;-44
2023/08/28 01:53:01;;;;;;;;;2.25;1.00;;;;;18.12;62.01;100949.28;5032133;28;45379;-44
2023/08/28 01:55:59;;;;;;;;;3.00;1.00;;;;;18.13;61.80;100948.25;5054839;28;45670;-42
2023/08/28 01:58:24;;;;;;;;;0.75;0.50;;;;;18.11;61.86;100949.47;5034840;28;45439;-42
2023/08/28 02:00:49;;;;;;;;;1.00;0.00;;;;;18.11;61.89;100947.59;5055530;28;45419;-42
2023/08/28 02:03:15;;;;;;;;;1.00;1.00;;;;;18.10;61.89;100948.63;5055831;28;45339;-46
2023/08/28 02:05:40;;;;;;;;;2.00;1.00;;;;;18.06;61.99;100941.97;5055858;28;45213;-42
2023/08/28 02:08:05;;;;;;;;;0.00;0.00;;;;;17.99;61.79;100941.03;5055321;28;50710;-43
2023/08/28 02:10:31;;;;;;;;;0.50;0.00;;;;;17.94;62.19;100933.53;5055588;28;45230;-41
2023/08/28 02:12:56;;;;;;;;;0.00;0.00;;;;;18.01;62.08;100952.47;5055903;28;45398;-42
2023/08/28 02:15:22;;;;;;;;;2.25;1.00;;;;;17.98;62.34;100944.75;5055829;28;45329;-44
2023/08/28 02:17:47;;;;;;;;;0.50;0.50;;;;;18.00;62.32;100941.91;5055340;28;45366;-43
2023/08/28 02:20:12;;;;;;;;;1.00;0.00;;;;;18.01;61.81;100935.50;5055800;28;45383;-44
2023/08/28 02:22:38;;;;;;;;;0.00;0.00;;;;;18.04;62.29;100937.81;5057225;28;48029;-42
2023/08/28 02:25:05;;;;;;;;;1.00;1.00;;;;;18.04;62.25;100935.94;5059284;28;45342;-45
2023/08/28 02:27:31;;;;;;;;;2.75;0.25;;;;;18.03;62.41;100931.56;5058828;28;46250;-42
2023/08/28 02:29:56;;;;;;;;;0.00;0.00;;;;;18.04;62.34;100938.63;5058774;28;45434;-42
2023/08/28 02:32:23;;;;;;;;;0.75;0.75;;;;;18.01;62.54;100941.69;5058833;28;45371;-42
2023/08/28 02:34:48;;;;;;;;;0.75;0.25;;;;;18.03;62.54;100936.94;5058978;28;45367;-42
2023/08/28 02:37:14;;;;;;;;;2.00;0.00;;;;;18.03;62.39;100936.13;5058476;28;45402;-42
2023/08/28 02:39:39;;;;;;;;;2.50;0.75;;;;;18.04;62.53;100935.13;5058596;28;45403;-42
2023/08/28 02:42:04;;;;;;;;;1.00;1.00;;;;;18.01;62.70;100935.50;5057319;28;45425;-42
2023/08/28 02:44:30;;;;;;;;;0.00;0.00;;;;;18.01;62.46;100947.09;5058867;28;45293;-42
2023/08/28 02:46:55;;;;;;;;;1.00;1.00;;;;;18.04;62.75;100952.09;5058472;28;46502;-42
2023/08/28 02:49:20;;;;;;;;;0.50;0.50;;;;;18.04;62.75;100941.34;5058234;28;50290;-42
2023/08/28 02:51:45;;;;;;;;;1.25;0.00;;;;;18.03;62.71;100949.56;5058544;28;45334;-41
2023/08/28 02:54:11;;;;;;;;;2.00;1.00;;;;;18.05;62.61;100956.44;5058686;28;45253;-42
2023/08/28 02:56:39;;;;;;;;;1.00;1.00;;;;;18.00;62.23;100933.81;5057821;28;45329;-41
2023/08/28 02:59:05;;;;;;;;;0.00;0.00;;;;;18.02;62.76;100945.22;5058551;28;45482;-43
2023/08/28 03:01:37;;;;;;;;;0.00;0.00;;;;;18.03;62.87;100949.56;5056989;28;45235;-42
2023/08/28 03:04:05;;;;;;;;;1.75;0.75;;;;;18.01;62.89;100947.09;5058457;28;45344;-42
2023/08/28 03:06:37;;;;;;;;;1.50;0.00;;;;;18.00;62.97;100948.13;5058204;28;47108;-43
2023/08/28 03:09:04;;;;;;;;;1.00;0.00;;;;;18.02;62.71;100953.31;5058121;28;45573;-43
2023/08/28 03:11:29;;;;;;;;;0.75;0.75;;;;;18.01;62.98;100949.78;5058273;28;45355;-45
2023/08/28 03:13:55;;;;;;;;;4.00;1.00;;;;;18.01;63.12;100957.03;5058576;28;45452;-41
2023/08/28 03:16:20;;;;;;;;;0.25;0.25;;;;;18.03;63.16;100957.66;5057761;28;46284;-42
2023/08/28 03:18:46;;;;;;;;;1.00;1.00;;;;;18.02;63.30;100956.00;5058279;28;45415;-42
2023/08/28 03:21:11;;;;;;;;;1.00;1.00;;;;;17.98;63.11;100958.22;5057963;28;45358;-43
2023/08/28 03:23:36;;;;;;;;;0.00;0.00;;;;;17.96;63.10;100957.59;5058233;28;45417;-44
2023/08/28 03:26:02;;;;;;;;;1.00;1.00;;;;;17.98;63.20;100963.59;5056640;28;45375;-45
2023/08/28 03:28:28;;;;;;;;;0.00;0.00;;;;;17.99;63.24;100969.81;5057936;28;45642;-44
2023/08/28 03:31:00;;;;;;;;;2.75;1.00;;;;;17.99;63.22;100965.25;5057744;28;45351;-40
2023/08/28 03:33:25;;;;;;;;;0.00;0.00;;;;;17.98;63.52;100978.94;5057778;28;45405;-43
2023/08/28 03:35:51;;;;;;;;;4.00;0.75;;;;;17.93;63.74;100983.03;5057294;28;46028;-43
2023/08/28 03:38:17;;;;;;;;;1.00;1.00;;;;;17.90;63.86;100977.19;5057659;28;45384;-42
2023/08/28 03:40:44;;;;;;;;;1.00;1.00;;;;;17.88;64.13;100980.06;5057734;28;45411;-42
2023/08/28 03:43:09;;;;;;;;;1.33;1.33;;;;;17.83;64.03;100977.13;5057903;28;45524;-43
2023/08/28 03:45:35;;;;;;;;;1.33;1.33;;;;;17.76;63.94;100970.81;5057400;28;46215;-40
2023/08/28 03:48:00;;;;;;;;;2.00;0.00;;;;;17.74;64.29;100967.50;5057545;28;45325;-41
2023/08/28 03:50:29;;;;;;;;;1.00;1.00;;;;;17.75;64.16;100974.53;5057759;28;45395;-41
2023/08/28 03:52:55;;;;;;;;;1.00;0.33;;;;;17.73;64.60;100978.38;5056665;28;45381;-44
2023/08/28 03:55:20;;;;;;;;;2.00;0.00;;;;;17.70;64.49;100971.53;5057257;28;47360;-44
2023/08/28 03:57:46;;;;;;;;;3.00;1.67;;;;;17.72;64.45;100982.94;5057251;28;45352;-43
2023/08/28 04:00:13;;;;;;;;;2.00;0.75;;;;;17.65;64.50;100977.47;5057405;28;45692;-44
2023/08/28 04:02:39;;;;;;;;;0.00;0.00;;;;;17.64;64.55;100975.78;5056319;28;45449;-42
2023/08/28 04:05:06;;;;;;;;;2.00;0.00;;;;;17.62;64.80;100985.94;5057099;28;45470;-43
2023/08/28 04:07:34;;;;;;;;;0.33;0.33;;;;;17.58;64.92;100983.78;5057063;28;45443;-43
2023/08/28 04:09:59;;;;;;;;;1.67;1.00;;;;;17.66;64.84;100992.59;5057535;28;45320;-43
2023/08/28 04:12:25;;;;;;;;;1.00;1.00;;;;;17.68;64.72;100984.34;5057572;28;45461;-40
2023/08/28 04:14:50;;;;;;;;;1.00;1.00;;;;;17.72;64.68;100993.69;5056649;28;46007;-43
2023/08/28 04:17:16;;;;;;;;;1.00;1.00;;;;;17.75;64.74;100987.16;5057077;28;45396;-42
2023/08/28 04:19:42;;;;;;;;;3.33;1.00;;;;;17.81;64.93;100989.91;5056923;28;45344;-41
2023/08/28 04:22:07;;;;;;;;;2.00;1.00;;;;;17.84;64.50;100986.84;5057406;28;45387;-42
2023/08/28 04:24:33;;;;;;;;;2.00;2.00;;;;;17.85;64.72;100993.06;5056755;28;46323;-40
2023/08/28 04:26:58;;;;;;;;;1.00;1.00;;;;;17.88;64.51;100990.84;5056987;28;45450;-43
2023/08/28 04:29:24;;;;;;;;;2.00;2.00;;;;;17.90;64.49;100990.63;5056924;28;45406;-43
2023/08/28 04:31:49;;;;;;;;;2.00;1.67;;;;;17.92;64.12;100978.66;5056855;28;45722;-42
2023/08/28 04:34:15;;;;;;;;;5.00;0.00;;;;;17.90;64.44;100980.69;5056706;28;46327;-43
2023/08/28 04:36:40;;;;;;;;;3.00;1.00;;;;;17.88;64.16;100971.16;5056281;28;45261;-40
2023/08/28 04:39:05;;;;;;;;;1.33;1.33;;;;;17.88;64.49;100977.38;5057003;28;45370;-42
2023/08/28 04:41:31;;;;;;;;;0.00;0.00;;;;;17.87;64.43;100972.19;5056915;28;45368;-42
2023/08/28 04:43:56;;;;;;;;;4.67;1.33;;;;;17.87;64.27;100973.03;5056122;28;45911;-42
2023/08/28 04:46:22;;;;;;;;;2.00;2.00;;;;;17.84;64.49;100978.78;5055959;28;45360;-43
2023/08/28 04:48:48;;;;;;;;;4.00;2.00;;;;;17.78;64.68;100967.91;5056709;28;45396;-41
2023/08/28 04:51:13;;;;;;;;;1.67;1.33;;;;;17.80;64.78;100968.59;5056898;28;45423;-41
2023/08/28 04:53:39;;;;;;;;;3.00;1.67;;;;;17.80;64.80;100961.34;5056069;28;46495;-41
2023/08/28 04:56:04;;;;;;;;;1.50;1.00;;;;;17.79;64.86;100964.22;5056404;28;45347;-40
2023/08/28 04:58:30;;;;;;;;;2.00;1.75;;;;;17.79;65.07;100958.84;5056678;28;45391;-41
2023/08/28 05:00:55;;;;;;;;;3.00;1.00;;;;;17.74;64.84;100947.75;5056641;28;45356;-40
2023/08/28 05:03:22;;;;;;;;;1.00;1.00;;;;;17.84;64.78;100961.81;5056315;28;46338;-43
2023/08/28 05:05:47;;;;;;;;;2.00;1.00;;;;;17.87;64.65;100962.25;5056326;28;45375;-42
2023/08/28 05:08:14;;;;;;;;;1.00;1.00;;;;;17.84;64.89;100951.03;5056193;28;45354;-41
2023/08/28 05:10:40;;;;;;;;;3.00;1.25;;;;;17.90;64.80;100955.66;5056528;28;45394;-41
2023/08/28 05:13:05;;;;;;;;;2.00;0.50;;;;;17.91;64.75;100951.94;5056117;28;45396;-41
2023/08/28 05:15:30;;;;;;;;;1.00;1.00;;;;;17.93;64.79;100949.88;5055932;28;45268;-43
2023/08/28 05:17:56;;;;;;;;;1.00;1.00;;;;;17.98;64.75;100952.84;5056400;28;45475;-42
2023/08/28 05:20:21;;;;;;;;;2.75;1.25;;;;;17.98;64.54;100955.53;5056362;28;45443;-42
2023/08/28 05:22:47;;;;;;;;;1.00;1.00;;;;;18.01;64.32;100957.03;5056088;28;45365;-42
2023/08/28 05:25:12;;;;;;;;;3.00;1.50;;;;;17.96;64.69;100952.22;5055602;28;45593;-44
2023/08/28 05:27:37;;;;;;;;;3.00;1.33;;;;;18.01;64.48;100962.41;5056322;28;45383;-41
2023/08/28 05:30:03;;;;;;;;;2.00;0.75;;;;;18.01;64.51;100971.31;5056376;28;45419;-41
2023/08/28 05:32:28;;;;;;;;;1.50;1.00;;;;;18.04;64.68;100960.19;5055309;28;46453;-41
2023/08/28 05:34:57;;;;;;;;;0.00;0.00;;;;;18.07;64.50;100965.16;5055879;28;45309;-41
2023/08/28 05:37:23;;;;;;;;;1.50;1.50;;;;;18.06;64.16;100966.19;5055988;28;45341;-41
2023/08/28 05:39:48;;;;;;;;;3.67;2.00;;;;;18.10;64.72;100963.94;5055906;28;45722;-40
2023/08/28 05:42:14;;;;;;;;;5.00;3.67;;;;;18.13;64.77;100964.41;5055697;28;46194;-44
2023/08/28 05:44:40;;;;;;;;;1.25;1.25;;;;;18.15;64.73;100956.97;5055894;28;45455;-41
2023/08/28 05:47:06;;;;;;;;;3.25;2.00;;;;;18.17;64.49;100956.78;5055923;28;45537;-41
2023/08/28 05:49:31;;;;;;;;;2.00;1.00;;;;;18.18;64.70;100961.13;5054758;28;45373;-41
2023/08/28 05:51:56;;;;;;;;;1.00;1.00;;;;;18.20;64.63;100961.75;5055599;28;49464;-42
2023/08/28 05:54:22;;;;;;;;;0.50;0.50;;;;;18.24;64.62;100954.97;5055225;28;45410;-45
2023/08/28 05:56:47;;;;;;;;;1.00;1.00;;;;;18.30;64.37;100954.22;5057767;28;45548;-41
2023/08/28 05:59:12;;;;;;;;;2.00;0.25;;;;;18.20;64.13;100938.41;5059152;28;45323;-41
2023/08/28 06:01:38;;;;;;;;;1.00;1.00;;;;;18.36;64.16;100955.31;5058551;28;48406;-41
2023/08/28 06:04:03;;;;;;;;;2.75;1.00;;;;;18.40;64.32;100946.66;5057666;28;45391;-40
2023/08/28 06:06:29;;;;;;;;;1.25;1.25;;;;;18.47;63.81;100951.28;5058995;28;45462;-40
2023/08/28 06:08:54;;;;;;;;;1.00;1.00;;;;;18.47;63.57;100943.19;5059191;28;45454;-44
2023/08/28 06:11:20;;;;;;;;;1.50;1.50;;;;;18.59;63.83;100944.34;5058545;28;45382;-45
2023/08/28 06:13:45;;;;;;;;;1.00;1.00;;;;;18.63;63.07;100940.22;5058886;28;45535;-43
2023/08/28 06:16:11;;;;;;;;;2.50;2.00;;;;;18.72;63.14;100947.16;5051831;28;45325;-40
2023/08/28 06:18:36;;;;;;;;;2.00;0.75;;;;;18.68;62.67;100932.38;5047415;28;45518;-41
2023/08/28 06:21:02;;;;;;;;;2.00;0.75;;;;;18.76;62.76;100937.66;5056240;28;45878;-41
2023/08/28 06:23:27;;;;;;;;;1.00;1.00;;;;;18.72;62.87;100927.47;5058937;28;45440;-42
2023/08/28 06:25:53;;;;;;;;;1.00;0.75;;;;;18.80;62.38;100946.19;5058799;28;45872;-43
2023/08/28 06:28:19;;;;;;;;;1.00;1.00;;;;;18.91;62.39;100948.34;5058833;28;45462;-44
2023/08/28 06:30:44;;;;;;;;;1.00;1.00;;;;;18.94;62.38;100942.56;5058307;28;46355;-42
2023/08/28 06:33:10;;;;;;;;;1.00;1.00;;;;;19.00;62.33;100935.53;5058444;28;45829;-42
2023/08/28 06:35:35;;;;;;;;;1.00;0.00;;;;;19.10;62.05;100946.81;5058374;28;45591;-42
2023/08/28 06:38:00;;;;;;;;;1.00;1.00;;;;;19.11;61.68;100945.78;5057729;28;45384;-41
2023/08/28 06:40:26;;;;;;;;;1.00;1.00;;;;;19.09;61.85;100940.59;5057834;28;47149;-41
2023/08/28 06:42:51;;;;;;;;;1.50;0.50;;;;;19.12;61.73;100945.56;5057394;28;45305;-44
2023/08/28 06:45:16;;;;;;;;;2.00;2.00;;;;;19.19;61.44;100946.47;5057707;28;45383;-42
2023/08/28 06:47:41;;;;;;;;;6.00;4.25;;;;;19.28;61.55;100941.75;5056588;28;45408;-42
2023/08/28 06:50:07;;;;;;;;;3.25;2.25;;;;;19.37;61.13;100940.53;5057166;28;46172;-43
2023/08/28 06:52:32;;;;;;;;;0.75;0.75;;;;;19.56;60.75;100932.75;5057749;28;45345;-44
2023/08/28 06:54:58;;;;;;;;;3.00;1.50;;;;;19.87;60.42;100935.78;5058292;28;45324;-44
2023/08/28 06:57:23;;;;;;;;;2.00;1.00;;;;;20.11;59.66;100931.72;5058393;28;45323;-43
2023/08/28 06:59:49;;;;;;;;;1.00;1.00;;;;;20.36;59.13;100925.72;5057384;28;46162;-42
2023/08/28 07:02:14;;;;;;;;;7.00;2.00;;;;;20.56;58.75;100926.59;5057338;28;45345;-44
2023/08/28 07:04:40;;;;;;;;;3.00;1.75;;;;;20.73;57.99;100918.91;5057939;28;45477;-41
2023/08/28 07:07:05;;;;;;;;;4.75;2.50;;;;;20.90;57.18;100917.44;5057696;28;45400;-42
2023/08/28 07:09:31;;;;;;;;;2.00;2.00;;;;;21.27;56.65;100923.16;5057763;28;46163;-40
2023/08/28 07:11:56;;;;;;;;;2.00;1.75;;;;;21.49;55.90;100903.94;5057805;28;45419;-51
2023/08/28 07:14:21;;;;;;;;;3.00;2.00;;;;;22.01;54.77;100923.69;5057710;28;45475;-42
2023/08/28 07:16:47;;;;;;;;;1.75;1.75;;;;;22.08;54.44;100919.91;5058222;28;45436;-42
2023/08/28 07:19:12;;;;;;;;;1.75;1.00;;;;;22.12;54.18;100912.16;5057359;28;46638;-41
2023/08/28 07:21:38;;;;;;;;;2.00;2.00;;;;;22.15;54.05;100914.47;5057674;28;45510;-42
2023/08/28 07:24:03;;;;;;;;;2.50;2.00;;;;;22.00;54.55;100913.91;5057784;28;45455;-42
2023/08/28 07:26:29;;;;;;;;;5.25;2.25;;;;;21.91;54.68;100918.72;5057496;28;45411;-41
2023/08/28 07:28:54;;;;;;;;;2.75;1.00;;;;;21.89;54.84;100918.13;5057571;28;45489;-41
2023/08/28 07:31:19;;;;;;;;;4.00;1.75;;;;;21.99;54.81;100917.66;5057202;28;45437;-45
2023/08/28 07:33:45;;;;;;;;;1.00;1.00;;;;;22.07;54.46;100922.81;5057640;28;45395;-43
2023/08/28 07:36:10;;;;;;;;;3.75;3.50;;;;;22.25;53.83;100917.53;5057533;28;45339;-43
2023/08/28 07:38:36;;;;;;;;;3.75;2.75;;;;;22.35;53.92;100914.31;5057371;28;45659;-41
2023/08/28 07:41:01;;;;;;;;;3.25;1.75;;;;;22.35;53.83;100912.44;5057732;28;45237;-42
2023/08/28 07:43:26;;;;;;;;;2.25;2.00;;;;;22.26;53.76;100902.09;5057353;28;45458;-41
2023/08/28 07:45:52;;;;;;;;;3.00;3.00;;;;;22.24;53.94;100910.44;5057903;28;45225;-43
2023/08/28 07:48:17;;;;;;;;;3.00;3.00;;;;;22.19;54.10;100921.09;5057117;28;45364;-43
2023/08/28 07:50:45;;;;;;;;;5.25;2.75;;;;;21.97;54.54;100907.06;5057253;28;45347;-42
2023/08/28 07:53:10;;;;;;;;;6.00;5.75;;;;;21.91;55.10;100924.16;5057241;28;45354;-43
2023/08/28 07:55:37;;;;;;;;;3.75;2.00;;;;;21.82;55.19;100925.47;5057104;28;45297;-42
2023/08/28 07:58:04;;;;;;;;;7.25;7.00;;;;;21.85;54.95;100930.44;5057302;28;45477;-42
2023/08/28 08:00:34;;;;;;;;;14.75;14.00;;;;;21.98;54.93;100926.84;5053914;28;45506;-43
2023/08/28 08:03:00;;;;;;;;;3.20;3.20;;;;;22.23;54.30;100926.91;5057169;28;45482;-40
2023/08/28 08:05:26;;;;;;;;;5.00;5.00;;;;;22.28;54.01;100925.19;5057163;28;45559;-41
2023/08/28 08:07:51;;;;;;;;;2.00;2.00;;;;;22.40;53.67;100926.16;5056787;28;46343;-42
2023/08/28 08:10:17;;;;;;;;;5.75;4.00;;;;;22.58;53.57;100922.66;5056582;28;45320;-41
2023/08/28 08:12:44;;;;;;;;;5.25;4.75;;;;;22.78;53.16;100930.63;5057224;28;45437;-42
2023/08/28 08:15:10;;;;;;;;;4.00;3.00;;;;;22.88;53.04;100935.53;5056675;28;45459;-43
2023/08/28 08:17:38;;;;;;;;;4.25;4.00;;;;;22.97;52.50;100933.44;5056747;28;45396;-42
2023/08/28 08:20:10;;;;;;;;;4.60;2.80;;;;;23.08;52.32;100930.78;5056751;28;45373;-41
2023/08/28 08:22:39;;;;;;;;;2.20;2.20;;;;;23.18;52.25;100926.75;5056550;28;45332;-41
2023/08/28 08:25:05;;;;;;;;;3.00;3.00;;;;;23.32;52.08;100930.97;5057134;28;45323;-43
2023/08/28 08:27:31;;;;;;;;;3.00;2.00;;;;;23.46;51.55;100932.47;5056834;28;46921;-44
2023/08/28 08:29:56;;;;;;;;;2.25;2.25;;;;;23.58;50.87;100943.41;5056513;28;45367;-40
2023/08/28 08:32:21;;;;;;;;;4.00;3.25;;;;;23.60;51.14;100947.56;5056593;28;45816;-42
2023/08/28 08:34:47;;;;;;;;;3.25;3.25;;;;;23.64;50.62;100950.66;5055481;28;45305;-42
2023/08/28 08:37:13;;;;;;;;;6.25;3.25;;;;;23.66;50.83;100951.25;5056337;28;46583;-42
2023/08/28 08:39:38;;;;;;;;;3.80;2.80;;;;;23.72;50.70;100947.63;5056372;28;45430;-42
2023/08/28 08:42:04;;;;;;;;;2.00;2.00;;;;;24.25;49.95;100941.47;5055020;28;45494;-43
2023/08/28 08:44:30;;;;;;;;;5.00;4.00;;;;;25.22;47.89;100938.38;5056936;28;45479;-43
2023/08/28 08:46:56;;;;;;;;;3.75;3.50;;;;;25.17;47.81;100943.72;5056104;28;46423;-41
2023/08/28 08:49:26;;;;;;;;;5.00;5.00;;;;;24.87;48.16;100944.66;5054843;28;45434;-42
2023/08/28 08:51:55;;;;;;;;;3.00;2.80;;;;;24.76;48.67;100939.22;5056416;28;45463;-44
2023/08/28 08:54:25;;;;;;;;;4.00;4.00;;;;;24.91;48.35;100942.31;5056222;28;45340;-43
2023/08/28 08:56:55;;;;;;;;;6.20;6.20;;;;;25.18;47.64;100936.38;5056303;28;45360;-42
2023/08/28 08:59:24;;;;;;;;;3.80;3.80;;;;;25.31;47.55;100926.06;5055970;28;45391;-42
2023/08/28 09:01:50;;;;;;;;;3.40;3.20;;;;;26.43;45.68;100913.75;5056230;28;45451;-44
2023/08/28 09:04:15;;;;;;;;;3.00;3.00;;;;;27.66;42.59;100931.91;5056273;28;45268;-44
2023/08/28 09:06:41;;;;;;;;;4.00;4.00;;;;;28.35;41.60;100934.81;5054220;28;47819;-44
2023/08/28 09:09:09;;;;;;;;;3.50;2.00;;;;;28.90;39.73;100933.63;5037380;28;45346;-45
2023/08/28 09:11:39;;;;;;;;;4.00;3.80;;;;;28.32;40.63;100929.91;5056072;28;45287;-45
2023/08/28 09:14:05;;;;;;;;;5.80;4.00;;;;;27.94;41.65;100941.81;5056360;28;45355;-45
2023/08/28 09:16:33;;;;;;;;;4.00;4.00;;;;;27.67;42.20;100928.09;5055694;28;46390;-42
2023/08/28 09:18:58;;;;;;;;;5.20;3.60;;;;;27.35;42.60;100937.03;5055810;28;45422;-42
2023/08/28 09:21:24;;;;;;;;;3.00;3.00;;;;;26.97;42.80;100940.53;5055738;28;45778;-42
2023/08/28 09:23:53;;;;;;;;;4.75;4.00;;;;;26.53;43.69;100932.22;5054883;28;45434;-42
2023/08/28 09:26:20;;;;;;;;;4.00;4.00;;;;;26.23;44.30;100936.06;5055539;28;46299;-42
2023/08/28 09:29:04;;;;;;;;;4.40;4.40;;;;;26.29;44.76;100928.78;5055635;28;45508;-42
2023/08/28 09:31:31;;;;;;;;;4.80;4.00;;;;;27.85;42.34;100925.91;5059894;28;45372;-43
2023/08/28 09:33:56;;;;;;;;;4.00;4.00;;;;;28.36;41.15;100925.59;5062723;28;45434;-46
2023/08/28 09:36:22;;;;;;;;;4.50;4.00;;;;;29.61;38.20;100924.19;5062018;28;46536;-42
2023/08/28 09:38:47;;;;;;;;;3.00;3.00;;;;;29.56;38.08;100920.31;5062642;28;45493;-45
2023/08/28 09:41:13;;;;;;;;;3.00;3.00;;;;;28.74;38.99;100920.97;5058956;28;45505;-43
2023/08/28 09:43:38;;;;;;;;;5.50;3.25;;;;;28.16;40.90;100923.47;5062579;28;45422;-45
2023/08/28 09:46:05;;;;;;;;;5.25;4.00;;;;;27.92;41.07;100924.84;5062353;28;45800;-43
2023/08/28 09:48:35;;;;;;;;;3.60;3.00;;;;;29.33;39.56;100926.25;5062094;28;45327;-42
2023/08/28 09:51:06;;;;;;;;;3.00;2.80;;;;;31.19;35.99;100913.25;5062347;28;45315;-43
2023/08/28 09:53:33;;;;;;;;;3.00;2.20;;;;;31.79;34.70;100919.59;5062488;28;45338;-42
2023/08/28 09:55:59;;;;;;;;;2.00;2.00;;;;;31.12;35.20;100920.97;5061992;28;47083;-42
2023/08/28 09:58:26;;;;;;;;;2.00;2.00;;;;;30.28;36.37;100912.25;5062118;28;45339;-43
2023/08/28 10:00:54;;;;;;;;;4.40;4.40;;;;;29.87;37.39;100916.84;5062183;28;45450;-41
2023/08/28 10:03:21;;;;;;;;;2.80;2.80;;;;;29.18;37.82;100918.78;5061975;28;45253;-43
2023/08/28 10:05:47;;;;;;;;;6.80;3.60;;;;;28.40;39.09;100917.66;5062322;28;45829;-43
2023/08/28 10:08:14;;;;;;;;;6.80;4.00;;;;;27.81;40.10;100923.91;5061897;28;45377;-46
2023/08/28 10:10:42;;;;;;;;;4.80;3.00;;;;;27.21;41.13;100924.78;5062201;28;45436;-42
2023/08/28 10:13:14;;;;;;;;;5.40;3.80;;;;;26.72;41.97;100921.91;5062206;28;45442;-43
2023/08/28 10:15:45;;;;;;;;;6.80;5.00;;;;;26.18;43.23;100925.06;5061709;28;46273;-45
2023/08/28 10:18:21;;;;;;;;;4.60;3.80;;;;;25.56;44.38;100917.59;5061719;28;45613;-43
2023/08/28 10:20:47;;;;;;;;;4.20;3.60;;;;;25.07;45.63;100933.41;5062233;28;45271;-46
2023/08/28 10:23:15;;;;;;;;;5.40;3.20;;;;;24.70;45.86;100923.84;5060697;28;45822;-43
2023/08/28 10:25:42;;;;;;;;;3.40;3.40;;;;;24.35;47.24;100930.00;5061592;28;45418;-43
2023/08/28 10:28:08;;;;;;;;;4.00;2.00;;;;;24.00;49.03;100944.34;5061596;28;45408;-45
2023/08/28 10:30:34;;;;;;;;;5.00;3.75;;;;;23.65;50.46;100946.91;5061563;28;45307;-42
2023/08/28 10:33:03;;;;;;;;;4.80;3.80;;;;;23.29;51.42;100942.25;5060590;28;45417;-42
2023/08/28 10:35:29;;;;;;;;;4.80;4.80;;;;;23.06;52.44;100940.22;5059890;28;47497;-43
2023/08/28 10:37:55;;;;;;;;;10.80;10.60;;;;;22.83;53.07;100933.50;5061477;28;45351;-43
2023/08/28 10:40:21;;;;;;;;;30.67;29.33;;;;;22.77;53.43;100949.84;5061738;28;45379;-43
2023/08/28 10:42:48;;;;;;;;;33.33;29.33;;;;;22.63;53.70;100951.88;5057368;28;45931;-43
2023/08/28 10:45:14;;;;;;;;;80.00;69.50;;;;;22.50;54.23;100944.66;5057631;28;46371;-42
2023/08/28 10:47:47;;;;;;;;;130.75;113.50;;;;;22.36;54.77;100949.31;5057988;28;45476;-44
2023/08/28 10:50:13;;;;;;;;;200.33;168.67;;;;;22.25;55.17;100947.34;5057970;28;45397;-42
2023/08/28 10:52:38;;;;;;;;;122.25;108.00;;;;;22.17;55.54;100955.72;5058359;28;45402;-44
2023/08/28 10:55:09;;;;;;;;;79.50;55.25;;;;;22.05;55.56;100936.59;5057655;28;46095;-44
2023/08/28 10:57:44;;;;;;;;;57.00;43.33;;;;;22.11;55.81;100953.84;5057991;28;45513;-45
2023/08/28 11:00:15;;;;;;;;;43.67;35.00;;;;;22.07;55.51;100948.03;5057970;28;45295;-44
2023/08/28 11:03:08;;;;;;;;;19.00;17.75;;;;;22.05;54.82;100949.31;5058235;28;45628;-43
2023/08/28 11:05:34;;;;;;;;;13.25;12.75;;;;;22.02;54.42;100937.03;5057704;28;46325;-43
2023/08/28 11:08:04;;;;;;;;;11.75;9.50;;;;;22.09;54.25;100943.25;5057996;28;45629;-41
2023/08/28 11:10:31;;;;;;;;;7.00;7.00;;;;;22.35;53.73;100939.53;5056815;28;45442;-45
2023/08/28 11:13:06;;;;;;;;;6.75;6.75;;;;;22.80;52.75;100939.41;5057849;28;45525;-46
2023/08/28 11:15:39;;;;;;;;;5.75;5.25;;;;;24.05;50.51;100933.59;5057232;28;46006;-43
2023/08/28 11:18:27;;;;;;;;;29.00;20.75;;;;;25.38;47.77;100920.50;5056736;28;45477;-42
2023/08/28 11:20:58;;;;;;;;;22.25;20.25;;;;;26.17;46.27;100919.84;5056476;28;45273;-44
2023/08/28 11:23:36;;;;;;;;;8.80;6.40;;;;;26.71;43.97;100901.94;5055549;28;45360;-46